createdAt,value
2023-05-06T00:01:43.889Z,15.92
2023-05-06T00:04:11.632Z,15.77
2023-05-06T00:06:39.071Z,15.70
2023-05-06T00:09:06.513Z,15.75
2023-05-06T00:11:34.221Z,15.73
2023-05-06T00:14:01.602Z,15.73
2023-05-06T00:16:29.008Z,15.69
2023-05-06T00:18:56.717Z,15.78
2023-05-06T00:21:24.084Z,15.85
2023-05-06T00:23:51.511Z,15.85
2023-05-06T00:26:19.161Z,15.69
2023-05-06T00:28:46.571Z,15.82
2023-05-06T00:31:14.059Z,15.82
2023-05-06T00:33:41.839Z,15.76
2023-05-06T00:36:09.262Z,15.67
2023-05-06T00:38:36.637Z,15.76
2023-05-06T00:41:04.523Z,15.76
2023-05-06T00:43:31.871Z,15.70
2023-05-06T00:45:59.382Z,15.77
2023-05-06T00:48:27.398Z,15.66
2023-05-06T00:50:54.924Z,15.71
2023-05-06T00:53:22.396Z,15.56
2023-05-06T00:55:51.249Z,15.57
2023-05-06T00:58:20.219Z,15.59
2023-05-06T01:00:47.686Z,15.51
2023-05-06T01:03:15.897Z,15.52
2023-05-06T01:05:53.622Z,15.51
2023-05-06T01:08:36.038Z,15.56
2023-05-06T01:11:26.565Z,15.64
2023-05-06T01:14:35.768Z,15.45
2023-05-06T01:17:06.402Z,15.47
2023-05-06T01:19:43.340Z,15.47
2023-05-06T01:22:11.727Z,15.51
2023-05-06T01:24:44.008Z,15.38
2023-05-06T01:27:13.266Z,15.43
2023-05-06T01:29:42.598Z,15.38
2023-05-06T01:32:34.746Z,15.39
2023-05-06T01:35:33.270Z,15.40
2023-05-06T01:38:17.752Z,15.31
2023-05-06T01:40:49.023Z,15.38
2023-05-06T01:43:17.098Z,15.24
2023-05-06T01:45:49.663Z,15.27
2023-05-06T01:48:16.959Z,15.22
2023-05-06T01:50:44.759Z,15.18
2023-05-06T01:53:12.242Z,15.08
2023-05-06T01:55:39.628Z,15.12
2023-05-06T01:58:07.296Z,15.11
2023-05-06T02:00:34.956Z,14.98
2023-05-06T02:03:02.752Z,14.97
2023-05-06T02:05:30.835Z,14.86
2023-05-06T02:07:58.535Z,14.91
2023-05-06T02:10:26.286Z,14.93
2023-05-06T02:12:55.122Z,14.87
2023-05-06T02:15:23.370Z,14.95
2023-05-06T02:17:51.088Z,14.90
2023-05-06T02:20:18.469Z,14.91
2023-05-06T02:22:45.904Z,14.88
2023-05-06T02:25:13.622Z,14.86
2023-05-06T02:27:41.053Z,14.80
2023-05-06T02:30:08.744Z,14.80
2023-05-06T02:32:36.582Z,14.67
2023-05-06T02:35:04.301Z,14.72
2023-05-06T02:37:31.786Z,14.69
2023-05-06T02:40:00.795Z,14.70
2023-05-06T02:42:28.220Z,14.71
2023-05-06T02:44:55.673Z,14.59
2023-05-06T02:47:24.652Z,14.65
2023-05-06T02:49:52.071Z,14.55
2023-05-06T02:52:19.455Z,14.56
2023-05-06T02:54:47.203Z,14.56
2023-05-06T02:57:14.649Z,14.55
2023-05-06T02:59:42.107Z,14.40
2023-05-06T03:02:09.754Z,14.47
2023-05-06T03:04:37.226Z,14.37
2023-05-06T03:07:04.686Z,14.35
2023-05-06T03:09:32.644Z,14.29
2023-05-06T03:12:00.577Z,14.27
2023-05-06T03:14:28.268Z,14.22
2023-05-06T03:16:56.240Z,14.26
2023-05-06T03:19:23.739Z,14.31
2023-05-06T03:21:51.184Z,14.32
2023-05-06T03:24:19.965Z,14.31
2023-05-06T03:26:47.568Z,14.26
2023-05-06T03:29:15.016Z,14.27
2023-05-06T03:31:43.082Z,14.28
2023-05-06T03:34:11.585Z,14.29
2023-05-06T03:36:39.080Z,14.21
2023-05-06T03:39:06.901Z,14.33
2023-05-06T03:41:34.708Z,14.35
2023-05-06T03:44:02.702Z,14.18
2023-05-06T03:46:31.177Z,14.09
2023-05-06T03:49:00.677Z,14.23
2023-05-06T03:51:28.735Z,14.25
2023-05-06T03:53:57.027Z,14.26
2023-05-06T03:56:25.000Z,14.17
2023-05-06T03:58:54.585Z,14.29
2023-05-06T04:01:23.685Z,14.29
2023-05-06T04:03:52.270Z,14.30
2023-05-06T04:06:19.854Z,14.32
2023-05-06T04:08:47.740Z,14.32
2023-05-06T04:11:15.615Z,14.41
2023-05-06T04:13:43.023Z,14.47
2023-05-06T04:16:10.772Z,14.53
2023-05-06T04:18:39.731Z,14.61
2023-05-06T04:21:07.357Z,14.63
2023-05-06T04:23:35.210Z,14.64
2023-05-06T04:26:02.951Z,14.63
2023-05-06T04:28:31.089Z,14.73
2023-05-06T04:30:59.038Z,14.80
2023-05-06T04:33:29.308Z,14.76
2023-05-06T04:35:57.223Z,14.85
2023-05-06T04:38:27.123Z,14.88
2023-05-06T04:40:55.508Z,15.00
2023-05-06T04:43:23.103Z,15.05
2023-05-06T04:45:52.885Z,15.04
2023-05-06T04:48:22.384Z,14.93
2023-05-06T04:50:50.981Z,15.16
2023-05-06T04:53:18.653Z,15.15
2023-05-06T04:55:47.241Z,15.38
2023-05-06T04:58:15.750Z,15.37
2023-05-06T05:00:43.595Z,15.40
2023-05-06T05:03:11.558Z,15.49
2023-05-06T05:05:39.171Z,15.58
2023-05-06T05:08:07.990Z,15.62
2023-05-06T05:10:36.170Z,15.69
2023-05-06T05:13:03.938Z,15.78
2023-05-06T05:15:31.421Z,15.76
2023-05-06T05:17:59.206Z,15.82
2023-05-06T05:20:27.118Z,15.96
2023-05-06T05:22:54.948Z,15.99
2023-05-06T05:25:23.083Z,16.10
2023-05-06T05:27:50.639Z,16.19
2023-05-06T05:30:18.696Z,16.35
2023-05-06T05:32:46.711Z,16.41
2023-05-06T05:35:14.420Z,16.49
2023-05-06T05:37:42.671Z,16.58
2023-05-06T05:40:11.023Z,16.63
2023-05-06T05:42:40.159Z,16.80
2023-05-06T05:45:09.143Z,16.91
2023-05-06T05:47:37.432Z,17.04
2023-05-06T05:50:06.286Z,17.31
2023-05-06T05:52:33.694Z,17.48
2023-05-06T05:55:01.736Z,17.75
2023-05-06T05:57:29.144Z,18.03
2023-05-06T05:59:56.593Z,18.19
2023-05-06T06:02:24.432Z,18.44
2023-05-06T06:04:52.848Z,18.51
2023-05-06T06:07:20.422Z,18.59
2023-05-06T06:09:48.908Z,18.75
2023-05-06T06:12:18.022Z,18.92
2023-05-06T06:14:48.066Z,19.18
2023-05-06T06:17:16.723Z,19.38
2023-05-06T06:19:47.534Z,19.29
2023-05-06T06:22:15.003Z,19.31
2023-05-06T06:24:43.155Z,19.41
2023-05-06T06:27:11.603Z,19.41
2023-05-06T06:29:39.329Z,19.51
2023-05-06T06:32:07.914Z,19.72
2023-05-06T06:34:35.663Z,19.99
2023-05-06T06:37:03.395Z,20.04
2023-05-06T06:39:30.784Z,20.42
2023-05-06T06:41:58.585Z,20.56
2023-05-06T06:44:26.078Z,20.71
2023-05-06T06:46:53.525Z,20.84
2023-05-06T06:49:21.247Z,21.24
2023-05-06T06:51:48.646Z,21.46
2023-05-06T06:54:16.039Z,21.53
2023-05-06T06:56:43.717Z,21.68
2023-05-06T06:59:11.061Z,21.73
2023-05-06T07:01:38.455Z,21.79
2023-05-06T07:04:07.372Z,21.97
2023-05-06T07:06:34.879Z,22.18
2023-05-06T07:09:02.402Z,22.46
2023-05-06T07:11:30.108Z,22.77
2023-05-06T07:13:57.631Z,22.85
2023-05-06T07:16:25.396Z,23.01
2023-05-06T07:18:53.835Z,23.27
2023-05-06T07:21:21.253Z,23.47
2023-05-06T07:23:48.967Z,23.58
2023-05-06T07:26:16.664Z,23.66
2023-05-06T07:28:44.154Z,23.71
2023-05-06T07:31:11.592Z,23.85
2023-05-06T07:33:39.325Z,24.07
2023-05-06T07:36:07.068Z,24.08
2023-05-06T07:38:34.440Z,24.03
2023-05-06T07:41:02.144Z,24.07
2023-05-06T07:43:29.872Z,23.95
2023-05-06T07:46:02.616Z,24.09
2023-05-06T07:48:30.555Z,24.25
2023-05-06T07:50:58.405Z,24.35
2023-05-06T07:53:26.289Z,24.48
2023-05-06T07:55:56.065Z,24.37
2023-05-06T07:58:23.448Z,24.58
2023-05-06T08:00:50.898Z,24.48
2023-05-06T08:03:18.651Z,24.41
2023-05-06T08:05:46.227Z,24.59
2023-05-06T08:08:13.635Z,24.64
2023-05-06T08:10:41.375Z,24.67
2023-05-06T08:13:08.754Z,25.09
2023-05-06T08:15:36.551Z,25.02
2023-05-06T08:18:21.035Z,25.02
2023-05-06T08:20:51.243Z,25.14
2023-05-06T08:23:18.957Z,25.25
2023-05-06T08:25:46.610Z,25.16
2023-05-06T08:28:14.177Z,25.35
2023-05-06T08:30:42.039Z,25.29
2023-05-06T08:33:09.480Z,25.49
2023-05-06T08:35:36.980Z,25.52
2023-05-06T08:38:04.699Z,25.73
2023-05-06T08:40:33.607Z,25.71
2023-05-06T08:43:03.505Z,25.81
2023-05-06T08:45:32.987Z,25.86
2023-05-06T08:48:00.636Z,26.02
2023-05-06T08:50:28.382Z,25.77
2023-05-06T08:52:56.064Z,25.71
2023-05-06T08:55:24.345Z,25.78
2023-05-06T08:57:53.042Z,25.75
2023-05-06T09:00:20.729Z,25.85
2023-05-06T09:02:48.313Z,25.82
2023-05-06T09:05:16.371Z,25.86
2023-05-06T09:07:44.090Z,25.82
2023-05-06T09:10:13.084Z,25.85
2023-05-06T09:12:40.663Z,25.97
2023-05-06T09:15:09.634Z,26.17
2023-05-06T09:17:37.216Z,26.35
2023-05-06T09:20:08.266Z,26.55
2023-05-06T09:22:38.631Z,26.38
2023-05-06T09:25:06.738Z,26.56
2023-05-06T09:27:35.115Z,26.70
2023-05-06T09:30:05.746Z,26.89
2023-05-06T09:32:36.726Z,26.89
2023-05-06T09:35:06.118Z,26.93
2023-05-06T09:37:33.432Z,26.67
2023-05-06T09:40:01.273Z,26.95
2023-05-06T09:42:30.933Z,27.08
2023-05-06T09:45:02.000Z,27.05
2023-05-06T09:47:35.736Z,27.02
2023-05-06T09:50:04.030Z,26.63
2023-05-06T09:52:32.949Z,26.81
2023-05-06T09:55:01.571Z,27.03
2023-05-06T09:57:31.314Z,27.25
2023-05-06T10:00:00.588Z,27.49
2023-05-06T10:02:28.672Z,27.59
2023-05-06T10:04:57.464Z,27.76
2023-05-06T10:07:28.716Z,27.66
2023-05-06T10:09:58.626Z,27.56
2023-05-06T10:12:26.432Z,27.42
2023-05-06T10:14:53.857Z,27.32
2023-05-06T10:17:24.816Z,27.32
2023-05-06T10:19:55.932Z,27.20
2023-05-06T10:22:51.888Z,27.09
2023-05-06T10:25:38.553Z,26.99
2023-05-06T10:28:10.095Z,26.84
2023-05-06T10:30:44.348Z,26.85
2023-05-06T10:33:12.640Z,27.03
2023-05-06T10:35:57.146Z,27.07
2023-05-06T10:38:28.497Z,26.93
2023-05-06T10:40:56.491Z,26.68
2023-05-06T10:43:25.371Z,26.91
2023-05-06T10:46:21.118Z,27.05
2023-05-06T10:49:08.560Z,27.03
2023-05-06T10:51:37.066Z,26.74
2023-05-06T10:54:09.015Z,26.79
2023-05-06T10:56:38.416Z,26.88
2023-05-06T10:59:07.913Z,26.98
2023-05-06T11:01:42.995Z,27.02
2023-05-06T11:04:15.558Z,26.98
2023-05-06T11:06:48.750Z,27.28
2023-05-06T11:09:27.532Z,27.04
2023-05-06T11:12:03.081Z,27.16
2023-05-06T11:14:35.683Z,27.26
2023-05-06T11:17:29.411Z,27.43
2023-05-06T11:20:19.146Z,27.72
2023-05-06T11:22:46.617Z,27.42
2023-05-06T11:25:14.457Z,27.28
2023-05-06T11:27:41.911Z,27.27
2023-05-06T11:30:14.840Z,27.29
2023-05-06T11:32:43.007Z,27.21
2023-05-06T11:35:11.799Z,27.21
2023-05-06T11:37:39.285Z,26.92
2023-05-06T11:40:14.551Z,26.45
2023-05-06T11:42:42.097Z,26.58
2023-05-06T11:45:11.614Z,26.44
2023-05-06T11:47:43.532Z,26.41
2023-05-06T11:50:11.534Z,26.30
2023-05-06T11:52:40.153Z,26.33
2023-05-06T11:55:09.953Z,26.33
2023-05-06T11:57:44.629Z,26.32
2023-05-06T12:00:13.208Z,26.22
2023-05-06T12:02:41.154Z,26.10
2023-05-06T12:05:09.480Z,26.07
2023-05-06T12:07:37.245Z,26.03
2023-05-06T12:10:05.112Z,25.68
2023-05-06T12:15:00.893Z,25.63
2023-05-06T12:17:28.321Z,25.61
2023-05-06T12:19:56.202Z,25.60
2023-05-06T12:22:26.784Z,25.53
2023-05-06T12:24:54.319Z,25.48
2023-05-06T12:27:29.472Z,25.52
2023-05-06T12:29:56.896Z,25.64
2023-05-06T12:32:24.565Z,25.72
2023-05-06T12:34:52.050Z,25.71
2023-05-06T12:37:28.764Z,25.62
2023-05-06T12:39:59.066Z,25.62
2023-05-06T12:42:27.458Z,25.64
2023-05-06T12:44:55.042Z,25.60
2023-05-06T12:47:24.875Z,25.52
2023-05-06T12:49:54.707Z,25.51
2023-05-06T12:52:23.594Z,25.46
2023-05-06T12:54:52.721Z,25.38
2023-05-06T12:57:20.800Z,25.25
2023-05-06T12:59:48.617Z,25.48
2023-05-06T13:02:16.464Z,25.46
2023-05-06T13:04:45.257Z,25.45
2023-05-06T13:07:12.765Z,25.57
2023-05-06T13:09:40.554Z,25.49
2023-05-06T13:12:08.304Z,25.53
2023-05-06T13:14:37.819Z,25.53
2023-05-06T13:17:07.737Z,25.32
2023-05-06T13:19:35.179Z,25.43
2023-05-06T13:22:02.807Z,25.32
2023-05-06T13:24:30.861Z,25.34
2023-05-06T13:27:00.860Z,25.33
2023-05-06T13:29:29.945Z,25.21
2023-05-06T13:31:57.860Z,24.92
2023-05-06T13:34:25.974Z,24.76
2023-05-06T13:36:54.712Z,24.57
2023-05-06T13:39:22.789Z,24.44
2023-05-06T13:41:50.313Z,24.18
2023-05-06T13:44:18.662Z,24.00
2023-05-06T13:46:46.879Z,23.76
2023-05-06T13:49:14.707Z,23.73
2023-05-06T13:51:42.086Z,23.41
2023-05-06T13:54:10.139Z,23.30
2023-05-06T13:56:37.609Z,23.45
2023-05-06T13:59:05.007Z,23.50
2023-05-06T14:01:32.740Z,23.43
2023-05-06T14:04:00.452Z,23.46
2023-05-06T14:06:27.880Z,23.50
2023-05-06T14:08:55.776Z,23.37
2023-05-06T14:11:23.498Z,23.43
2023-05-06T14:13:50.963Z,23.27
2023-05-06T14:16:18.632Z,22.94
2023-05-06T14:18:46.406Z,22.79
2023-05-06T14:21:13.882Z,22.63
2023-05-06T14:23:41.487Z,22.52
2023-05-06T14:26:09.179Z,22.67
2023-05-06T14:28:36.635Z,22.65
2023-05-06T14:31:04.152Z,22.62
2023-05-06T14:33:31.866Z,22.71
2023-05-06T14:36:00.089Z,22.62
2023-05-06T14:38:27.458Z,22.78
2023-05-06T14:40:55.502Z,22.85
2023-05-06T14:43:23.688Z,22.80
2023-05-06T14:45:51.119Z,22.79
2023-05-06T14:48:18.875Z,22.81
2023-05-06T14:50:46.225Z,22.73
2023-05-06T14:53:13.651Z,22.75
2023-05-06T14:55:41.454Z,22.70
2023-05-06T14:58:08.887Z,22.72
2023-05-06T15:00:36.305Z,22.54
2023-05-06T15:03:04.666Z,22.61
2023-05-06T15:05:32.174Z,22.56
2023-05-06T15:07:59.582Z,22.41
2023-05-06T15:10:27.270Z,22.43
2023-05-06T15:12:54.694Z,22.54
2023-05-06T15:15:22.119Z,22.62
2023-05-06T15:17:52.372Z,22.54
2023-05-06T15:20:19.823Z,22.29
2023-05-06T15:22:47.465Z,22.35
2023-05-06T15:25:26.235Z,22.57
2023-05-06T15:28:01.368Z,22.62
2023-05-06T15:30:29.025Z,22.79
2023-05-06T15:32:56.527Z,22.78
2023-05-06T15:35:23.947Z,22.63
2023-05-06T15:37:55.457Z,22.65
2023-05-06T15:40:25.478Z,22.61
2023-05-06T15:42:53.214Z,22.94
2023-05-06T15:45:21.039Z,23.09
2023-05-06T15:47:48.631Z,23.12
2023-05-06T15:50:31.780Z,23.06
2023-05-06T15:53:02.102Z,23.15
2023-05-06T15:55:30.206Z,23.18
2023-05-06T16:00:28.158Z,23.14
2023-05-06T16:02:55.969Z,23.24
2023-05-06T16:05:23.497Z,23.42
2023-05-06T16:07:50.910Z,23.35
2023-05-06T16:10:18.590Z,23.36
2023-05-06T16:12:46.033Z,23.42
2023-05-06T16:15:13.498Z,23.31
2023-05-06T16:17:41.336Z,23.35
2023-05-06T16:20:10.502Z,23.28
2023-05-06T16:22:41.741Z,23.30
2023-05-06T16:25:09.881Z,23.26
2023-05-06T16:27:37.247Z,23.26
2023-05-06T16:30:05.053Z,23.19
2023-05-06T16:32:32.725Z,23.17
2023-05-06T16:35:00.165Z,23.14
2023-05-06T16:37:29.076Z,23.05
2023-05-06T16:39:56.806Z,23.15
2023-05-06T16:42:24.589Z,23.02
2023-05-06T16:44:52.305Z,22.98
2023-05-06T16:47:23.508Z,22.93
2023-05-06T16:49:51.104Z,22.96
2023-05-06T16:52:19.246Z,22.90
2023-05-06T16:54:46.888Z,22.80
2023-05-06T16:57:14.319Z,22.76
2023-05-06T16:59:41.740Z,22.74
2023-05-06T17:02:09.437Z,22.78
2023-05-06T17:04:37.555Z,22.83
2023-05-06T17:07:04.961Z,22.81
2023-05-06T17:09:32.758Z,22.75
2023-05-06T17:12:00.160Z,22.78
2023-05-06T17:14:28.129Z,22.76
2023-05-06T17:16:56.252Z,22.80
2023-05-06T17:19:23.790Z,22.78
2023-05-06T17:21:51.225Z,22.74
2023-05-06T17:24:18.932Z,22.70
2023-05-06T17:26:46.629Z,22.69
2023-05-06T17:29:14.111Z,22.65
2023-05-06T17:31:41.885Z,22.61
2023-05-06T17:34:09.249Z,22.65
2023-05-06T17:36:37.016Z,22.55
2023-05-06T17:39:05.263Z,22.56
2023-05-06T17:41:33.530Z,22.58
2023-05-06T17:44:01.214Z,22.56
2023-05-06T17:46:28.945Z,22.46
2023-05-06T17:48:56.361Z,22.49
2023-05-06T17:51:24.079Z,22.44
2023-05-06T17:53:51.901Z,22.57
2023-05-06T17:56:20.395Z,22.46
2023-05-06T17:58:47.836Z,22.25
2023-05-06T18:01:15.590Z,22.24
2023-05-06T18:03:43.963Z,22.18
2023-05-06T18:06:12.595Z,22.15
2023-05-06T18:08:39.990Z,22.13
2023-05-06T18:11:07.804Z,22.11
2023-05-06T18:13:36.338Z,22.14
2023-05-06T18:16:04.445Z,22.02
2023-05-06T18:18:32.304Z,21.93
2023-05-06T18:20:59.784Z,21.80
2023-05-06T18:23:28.144Z,21.83
2023-05-06T18:25:55.967Z,21.70
2023-05-06T18:28:23.333Z,21.67
2023-05-06T18:30:50.738Z,21.65
2023-05-06T18:33:20.162Z,21.69
2023-05-06T18:35:47.700Z,21.61
2023-05-06T18:38:15.650Z,21.67
2023-05-06T18:40:46.868Z,21.69
2023-05-06T18:43:14.282Z,21.58
2023-05-06T18:45:42.866Z,21.65
2023-05-06T18:48:11.031Z,21.52
2023-05-06T18:50:38.533Z,21.54
2023-05-06T18:53:05.954Z,21.53
2023-05-06T18:55:33.744Z,21.42
2023-05-06T18:58:05.529Z,21.33
2023-05-06T19:00:32.951Z,21.37
2023-05-06T19:03:00.805Z,21.15
2023-05-06T19:05:28.322Z,21.17
2023-05-06T19:07:55.734Z,21.21
2023-05-06T19:10:23.414Z,21.03
2023-05-06T19:12:50.837Z,21.06
2023-05-06T19:15:19.144Z,21.11
2023-05-06T19:17:46.843Z,21.15
2023-05-06T19:20:14.417Z,21.05
2023-05-06T19:22:42.005Z,20.98
2023-05-06T19:25:10.262Z,20.89
2023-05-06T19:27:37.794Z,20.84
2023-05-06T19:30:05.962Z,20.88
2023-05-06T19:32:33.811Z,20.78
2023-05-06T19:35:07.913Z,20.71
2023-05-06T19:37:37.046Z,20.69
2023-05-06T19:40:04.954Z,20.65
2023-05-06T19:42:33.834Z,20.62
2023-05-06T19:45:08.839Z,20.43
2023-05-06T19:47:36.466Z,20.41
2023-05-06T19:50:05.083Z,20.48
2023-05-06T19:52:34.461Z,20.37
2023-05-06T19:55:03.087Z,20.28
2023-05-06T19:57:33.512Z,20.33
2023-05-06T20:00:05.231Z,20.49
2023-05-06T20:02:32.996Z,20.44
2023-05-06T20:05:00.880Z,20.49
2023-05-06T20:07:28.520Z,20.50
2023-05-06T20:09:56.865Z,20.50
2023-05-06T20:12:27.752Z,20.51
2023-05-06T20:14:56.049Z,20.62
2023-05-06T20:17:23.938Z,20.57
2023-05-06T20:19:52.392Z,20.51
2023-05-06T20:22:19.993Z,20.47
2023-05-06T20:24:47.718Z,20.40
2023-05-06T20:27:15.398Z,20.42
2023-05-06T20:29:42.852Z,20.34
2023-05-06T20:32:10.560Z,20.43
2023-05-06T20:34:38.026Z,20.55
2023-05-06T20:37:05.456Z,20.53
2023-05-06T20:39:33.794Z,20.47
2023-05-06T20:42:02.123Z,20.51
2023-05-06T20:44:29.499Z,20.49
2023-05-06T20:46:57.152Z,20.48
2023-05-06T20:49:24.659Z,20.35
2023-05-06T20:51:52.095Z,20.45
2023-05-06T20:54:19.778Z,20.37
2023-05-06T20:56:47.156Z,20.33
2023-05-06T20:59:14.524Z,20.25
2023-05-06T21:01:42.308Z,20.23
2023-05-06T21:04:09.786Z,20.32
2023-05-06T21:06:37.193Z,20.12
2023-05-06T21:09:04.873Z,20.06
2023-05-06T21:11:32.379Z,20.12
2023-05-06T21:13:59.828Z,20.00
2023-05-06T21:16:27.704Z,20.07
2023-05-06T21:18:55.139Z,20.13
2023-05-06T21:21:24.326Z,20.08
2023-05-06T21:23:51.979Z,20.13
2023-05-06T21:26:19.384Z,20.07
2023-05-06T21:28:51.206Z,20.06
2023-05-06T21:31:19.708Z,19.97
2023-05-06T21:33:47.589Z,19.91
2023-05-06T21:36:14.986Z,20.04
2023-05-06T21:38:42.690Z,19.86
2023-05-06T21:41:10.154Z,19.71
2023-05-06T21:43:37.585Z,19.82
2023-05-06T21:46:05.406Z,19.73
2023-05-06T21:48:32.811Z,19.21
2023-05-06T21:51:03.631Z,19.11
2023-05-06T21:53:31.331Z,19.22
2023-05-06T21:55:58.674Z,19.24
2023-05-06T21:58:26.074Z,19.35
2023-05-06T22:00:53.769Z,19.51
2023-05-06T22:03:21.609Z,19.54
2023-05-06T22:05:49.151Z,19.52
2023-05-06T22:08:17.080Z,19.46
2023-05-06T22:10:44.835Z,19.47
2023-05-06T22:13:12.302Z,19.61
2023-05-06T22:15:39.722Z,19.47
2023-05-06T22:18:08.683Z,19.53
2023-05-06T22:20:38.755Z,19.55
2023-05-06T22:23:06.126Z,19.49
2023-05-06T22:25:33.819Z,19.51
2023-05-06T22:28:01.186Z,19.55
2023-05-06T22:30:28.625Z,19.64
2023-05-06T22:32:56.441Z,19.71
2023-05-06T22:35:23.973Z,19.60
2023-05-06T22:37:51.468Z,19.53
2023-05-06T22:40:19.185Z,19.51
2023-05-06T22:42:48.218Z,19.54
2023-05-06T22:45:15.683Z,19.49
2023-05-06T22:47:43.388Z,19.48
2023-05-06T22:50:11.516Z,19.47
2023-05-06T22:52:38.932Z,19.28
2023-05-06T22:55:09.641Z,19.35
2023-05-06T22:57:37.412Z,19.38
2023-05-06T23:00:06.693Z,19.40
2023-05-06T23:02:34.699Z,19.36
2023-05-06T23:05:02.071Z,19.25
2023-05-06T23:07:29.454Z,19.26
2023-05-06T23:09:59.470Z,19.20
2023-05-06T23:12:27.974Z,19.29
2023-05-06T23:14:55.382Z,19.32
2023-05-06T23:17:23.131Z,19.21
2023-05-06T23:19:50.659Z,19.18
2023-05-06T23:22:18.108Z,19.08
2023-05-06T23:24:45.970Z,19.07
2023-05-06T23:27:13.380Z,18.96
2023-05-06T23:29:41.248Z,18.99
2023-05-06T23:32:09.128Z,18.99
2023-05-06T23:34:36.498Z,19.08
2023-05-06T23:37:03.859Z,19.01
2023-05-06T23:39:31.581Z,18.97
2023-05-06T23:42:00.857Z,18.81
2023-05-06T23:44:28.408Z,18.73
2023-05-06T23:46:56.218Z,18.74
2023-05-06T23:49:23.771Z,18.70
2023-05-06T23:51:51.140Z,18.54
2023-05-06T23:54:18.830Z,18.65
2023-05-06T23:56:46.178Z,18.60
2023-05-06T23:59:13.701Z,18.64
